Lester Prairie, Minnesota
Current Conditions -  °F | °C
As of 10:54 PM on Saturday 22 Nov 2014 (Local Time) from KGYL Reporting Station
Haze Haze  
Wind Chill: 38°   Ceiling: 300
Heat Index: 43°   Visibility: 3mi
Dew Point: 42°   Wind: 8mph
Humidity: 99%   Direction: 170°S
Pressure: 29.47"   Gusts: 16mph
Location:  44.88°N, 94.04°W
Report Text: KGYL 230454Z AUTO 17007G14KT 3SM BR OVC003 06/06 A2947 RMK AO2 T00590058
Loading
Personal Weather Stations






























Interactive Weather Map New forecast layout! Learn more

10-Day Weather Forecast

Advertisements
Track Severe Weather on mobile